Silas, AL (36919)

2:38 PM CDT on August 23, 2014 (GMT -0500)
KALBUTLE3 | Change Station
CLOSE
Current Station
Personal Weather Station
Location: Butler, AL
Elevation: 183 ft
Nearby Weather Stations
Active Advisory: Heat Advisory

Elev 183 ft 32.10 °N, 88.20 °W | Updated 8 minutes ago

Partly Cloudy
Partly Cloudy
95.4 °F
Feels Like 117 °F
N
3.4
Wind Variable Wind from SW
Gusts 3.4 mph

Today
High -- | Low -- °F
--% Chance of Precip.
Yesterday
High -- | Low -- °F
Precip. -- in
6:23 AM 7:27 PM
Waning Crescent, 3% visible
Pressure 29.99 in
Visibility 10.0 miles
Clouds Few 6000 ft
Heat Index 117 °F
Dew Point 81 °F
Humidity 63%
Rainfall 0.00 in
Snow Depth Not available.
UV 10 out of 12
Pollen 8.90 out of 12
Air Quality Not available.
Flu Activity Not available.
METAR KMEI 231858Z VRB03KT 10SM FEW060 36/19 A3000 RMK AO2 SLP155 T03560194

More Conditions Fewer Conditions

Pressure 29.99 in
Visibility 10.0 miles
Clouds Few 6000 ft
Heat Index 117 °F
Dew Point 81 °F
Humidity 63%
Rainfall 0.00 in
Snow Depth Not available.
UV 10 out of 12
Pollen 8.90 out of 12
Air Quality Not available.
Flu Activity Not available.
METAR KMEI 231858Z VRB03KT 10SM FEW060 36/19 A3000 RMK AO2 SLP155 T03560194

More Conditions Fewer Conditions

10-Day Weather Forecast

Almanac

Astronomy

Aug. 23, 2014 Rise Set
Actual Time 6:23 AM CDT 7:27 PM CDT
Civil Twilight 5:57 AM CDT 7:53 PM CDT
Nautical Twilight 5:27 AM CDT 8:22 PM CDT
Astronomical Twilight 4:57 AM CDT 8:53 PM CDT
Moon 4:41 AM CDT 6:11 PM CDT
Length of Visible Light 13h 55m
Length of Day
13h 04m
Tomorrow will be 1m 47s shorter.
Waning Crescent, 3% of the Moon is Illuminated
Today
Waning Crescent
Aug 25
New
Sep 2
First Quarter
Sep 8
Full
Sep 15
Last Quarter

Today's Extremes

State Highs State Lows

Community

WunderPhotos

Upload Photos

1,746,583 photos uploaded!

WunderBlogs® & News

Nearby

Snow Depth

Station Depth Elevation
No new snow has been reported.

Earthquake Activity

City Distance Mag. Time & Date
No recent earthquake activity has been reported nearby.
Minimum magnitude displayed is 2.5.

Coastal Water Temperatures

Place Temperature
No Stations Reporting

Nearby Weather Stations